Latest Coastal Weather Observations for Lucinda

IDQ60701

Issued at 7:01 am EST Sunday 30 August 2015 (issued every 10 minutes, with the page automatically refreshed every 10 minutes)

About coastal observations | Map of coastal stations | Coastal observations for QLD | Marine services | Other Formats
Station Details ID: 032141 Name: LUCINDA POINT Lat: -18.52 Lon: 146.39 Height: 10.0 m
Data from the previous 72 hours. | See also: Recent months at Lucinda
Date/Time
EST
Temp

°C
Wind Pressure Rain
since 9am
mm
Weather Cloud Vis
km
Sea
Height
m
Swell
Dir
 
Speed
knots
Gust
knots
hPa Trend Height
m
Period
s
Dir
30/07:00am 20.9 WSW 9 11 1016.9 - 0.0 - - - - - - -
30/06:30am 20.8 SW 11 12 1016.4 - 0.0 - - - - - - -
30/06:00am 21.3 SW 10 11 1016.1 - 0.0 - - - - - - -
30/05:30am 21.1 SW 8 9 1015.7 - 0.0 - - - - - - -
30/05:00am 21.0 WSW 8 9 1015.4 - 0.0 - - - - - - -
30/04:30am 21.6 WSW 7 8 1015.0 - 0.0 - - - - - - -
30/04:00am 21.7 SW 6 6 1015.1 - 0.0 - - - - - - -
30/03:30am 21.7 WSW 7 8 1015.2 - 0.0 - - - - - - -
30/03:00am 22.3 SW 6 11 1015.3 - 0.0 - - - - - - -
30/02:30am 22.5 WNW 3 5 1015.3 - 0.0 - - - - - - -
30/02:00am 23.1 NE 6 7 1015.6 - 0.0 - - - - - - -
30/01:30am 23.1 NE 6 7 1015.9 - 0.0 - - - - - - -
30/01:00am 23.1 NNE 7 8 1016.2 - 0.0 - - - - - - -
30/12:30am 23.3 NE 7 8 1016.6 - 0.0 - - - - - - -
30/12:00am 23.2 NE 7 9 1016.7 - 0.0 - - - - - - -
 
Date/Time
EST
Temp

°C
Wind Pressure Rain
since 9am
mm
Weather Cloud Vis
km
Sea
Height
m
Swell
Dir
 
Speed
knots
Gust
knots
hPa Trend Height
m
Period
s
Dir
29/11:30pm 23.2 NNE 7 9 1016.7 - 0.0 - - - - - - -
29/11:00pm 23.3 NNE 8 10 1016.7 - 0.0 - - - - - - -
29/10:30pm 23.2 NNE 7 9 1017.0 - 0.0 - - - - - - -
29/10:00pm 23.3 NNE 8 10 1016.9 - 0.0 - - - - - - -
29/09:30pm 23.4 NNE 9 11 1016.9 - 0.0 - - - - - - -
29/09:00pm 23.4 NE 10 11 1017.1 - 0.0 - - - - - - -
29/08:30pm 23.5 NE 10 11 1017.0 - 0.0 - - - - - - -
29/08:00pm 23.5 NE 11 13 1016.9 - 0.0 - - - - - - -
29/07:30pm 23.4 NE 11 13 1016.5 - 0.0 - - - - - - -
29/07:00pm 23.5 NE 13 15 1016.0 - 0.0 - - - - - - -
29/06:30pm 23.4 ENE 9 11 1016.2 - 0.0 - - - - - - -
29/06:00pm 23.5 E 8 11 1016.2 - 0.0 - - - - - - -
29/05:30pm 23.8 ESE 7 10 1016.1 - 0.0 - - - - - - -
29/05:00pm 23.9 E 8 10 1015.9 - 0.0 - - - - - - -
29/04:30pm 24.0 E 8 11 1015.8 - 0.0 - - - - - - -
29/04:00pm 24.1 E 8 10 1015.8 - 0.0 - - - - - - -
29/03:30pm 24.2 E 7 10 1016.0 - 0.0 - - - - - - -
29/03:00pm 24.4 E 6 8 1016.2 - 0.0 - - - - - - -
29/02:30pm 24.7 E 5 7 1016.7 - 0.0 - - - - - - -
29/02:00pm 24.5 NE 5 7 1017.2 - 0.0 - - - - - - -
29/01:30pm 25.1 ENE 4 6 1017.7 - 0.0 - - - - - - -
29/01:00pm 24.4 NE 5 7 1018.2 - 0.0 - - - - - - -
29/12:30pm 25.4 E 5 6 1018.5 - 0.0 - - - - - - -
29/12:00pm 24.8 E 6 8 1018.9 - 0.0 - - - - - - -
29/11:30am 24.8 E 6 8 1019.2 - 0.0 - - - - - - -
29/11:00am 25.8 ESE 4 5 1019.8 - 0.0 - - - - - - -
29/10:30am 25.3 CALM 0 0 1020.2 - 0.0 - - - - - - -
29/10:00am 23.1 SW 4 5 1020.3 - 0.0 - - - - - - -
29/09:30am 22.4 SW 5 6 1020.2 - 0.0 - - - - - - -
29/09:00am 22.0 SW 6 7 1019.8 - 0.0 - - - - - - -
29/08:30am 21.7 SW 5 6 1019.7 - 0.0 - - - - - - -
29/08:00am 21.4 SW 6 6 1019.2 - 0.0 - - - - - - -
29/07:30am 21.3 SW 6 7 1019.0 - 0.0 - - - - - - -
29/07:00am 21.2 SW 7 8 1018.7 - 0.0 - - - - - - -
29/06:30am 21.3 SW 7 8 1018.3 - 0.0 - - - - - - -
29/06:00am 21.3 SW 7 9 1017.9 - 0.0 - - - - - - -
29/05:30am 21.2 WSW 6 7 1017.5 - 0.0 - - - - - - -
29/05:00am 21.2 W 5 6 1017.3 - 0.0 - - - - - - -
29/04:30am 21.5 SW 6 9 1017.1 - 0.0 - - - - - - -
29/04:00am 22.8 S 4 5 1017.2 - 0.0 - - - - - - -
29/03:30am 23.0 SE 3 5 1017.3 - 0.0 - - - - - - -
29/03:00am 22.8 SE 4 6 1017.3 - 0.0 - - - - - - -
29/02:30am 22.7 SE 5 7 1017.5 - 0.0 - - - - - - -
29/02:00am 22.8 SE 6 8 1017.7 - 0.0 - - - - - - -
29/01:30am 22.9 ESE 5 9 1017.9 - 0.0 - - - - - - -
29/01:00am 23.0 ESE 7 10 1018.3 - 0.0 - - - - - - -
29/12:30am 23.0 E 7 9 1018.7 - 0.0 - - - - - - -
29/12:00am 23.3 ENE 8 10 1018.6 - 0.0 - - - - - - -
 
Date/Time
EST
Temp

°C
Wind Pressure Rain
since 9am
mm
Weather Cloud Vis
km
Sea
Height
m
Swell
Dir
 
Speed
knots
Gust
knots
hPa Trend Height
m
Period
s
Dir
28/11:30pm 23.3 NE 10 11 1018.6 - 0.0 - - - - - - -
28/11:00pm 23.1 NE 10 12 1018.7 - 0.0 - - - - - - -
28/10:30pm 23.1 ENE 9 11 1018.9 - 0.0 - - - - - - -
28/10:00pm 23.1 E 8 11 1019.0 - 0.0 - - - - - - -
28/09:30pm 23.1 E 6 8 1019.0 - 0.0 - - - - - - -
28/09:00pm 23.1 ENE 5 7 1019.0 - 0.0 - - - - - - -
28/08:30pm 23.2 NNE 7 8 1018.8 - 0.0 - - - - - - -
28/08:00pm 23.2 ENE 8 9 1018.8 - 0.0 - - - - - - -
28/07:30pm 23.3 ENE 7 9 1018.5 - 0.0 - - - - - - -
28/07:00pm 23.3 E 9 11 1018.0 - 0.0 - - - - - - -
28/06:30pm 23.2 ESE 7 10 1017.8 - 0.0 - - - - - - -
28/06:00pm 23.4 ESE 9 11 1017.5 - 0.0 - - - - - - -
28/05:30pm 23.7 ESE 7 9 1017.1 - 0.0 - - - - - - -
28/05:00pm 24.4 SE 5 9 1016.9 - 0.0 - - - - - - -
28/04:30pm 24.3 ESE 5 8 1016.6 - 0.0 - - - - - - -
28/04:00pm 24.8 ESE 6 10 1016.5 - 0.0 - - - - - - -
28/03:30pm 24.8 ESE 6 10 1016.3 - 0.0 - - - - - - -
28/03:00pm 24.4 SE 6 10 1016.3 - 0.0 - - - - - - -
28/02:30pm 24.6 ESE 6 10 1016.5 - 0.0 - - - - - - -
28/02:00pm 24.2 SSE 7 11 1016.8 - 0.0 - - - - - - -
28/01:30pm 24.4 ESE 8 14 1017.1 - 0.0 - - - - - - -
28/01:00pm 24.7 SE 6 9 1017.8 - 0.0 - - - - - - -
28/12:30pm 23.5 S 5 7 1018.2 - 0.0 - - - - - - -
28/12:00pm 23.3 S 9 13 1018.8 - 0.0 - - - - - - -
28/11:30am 24.3 S 5 6 1019.2 - 0.0 - - - - - - -
28/11:00am 23.7 S 7 10 1019.6 - 0.0 - - - - - - -
28/10:30am 23.6 S 5 8 1019.8 - 0.0 - - - - - - -
28/10:00am 22.8 SSW 6 7 1019.9 - 0.0 - - - - - - -
28/09:30am 22.5 SSW 5 6 1020.0 - 0.0 - - - - - - -
28/09:00am 21.8 SW 5 7 1020.0 - 0.0 - - - - - - -
28/08:30am 21.5 SW 8 9 1019.8 - 0.0 - - - - - - -
28/08:00am 22.3 SW 4 6 1019.4 - 0.0 - - - - - - -
28/07:30am 23.7 ESE 6 9 1019.0 - 0.0 - - - - - - -
28/07:00am 23.0 ESE 7 9 1018.7 - 0.0 - - - - - - -
28/06:30am 22.7 ESE 7 9 1018.3 - 0.0 - - - - - - -
28/06:00am 22.7 SE 5 8 1018.1 - 0.0 - - - - - - -
28/05:30am 22.7 SE 5 9 1017.8 - 0.0 - - - - - - -
28/05:00am 22.8 ESE 6 10 1017.7 - 0.0 - - - - - - -
28/04:30am 22.9 ESE 8 11 1017.6 - 0.0 - - - - - - -
28/04:00am 23.0 SE 7 11 1017.6 - 0.0 - - - - - - -
28/03:30am 22.9 SE 7 11 1017.5 - 0.0 - - - - - - -
28/03:00am 22.9 ESE 9 12 1017.5 - 0.0 - - - - - - -
28/02:30am 23.0 ESE 9 11 1017.6 - 0.0 - - - - - - -
28/02:00am 23.1 SE 7 11 1017.9 - 0.0 - - - - - - -
28/01:30am 22.8 SE 5 9 1018.2 - 0.0 - - - - - - -
28/01:00am 22.9 SE 5 10 1018.3 - 0.0 - - - - - - -
28/12:30am 22.9 SE 7 11 1018.6 - 0.0 - - - - - - -
28/12:00am 22.9 ESE 7 11 1018.9 - 0.0 - - - - - - -
 
Date/Time
EST
Temp

°C
Wind Pressure Rain
since 9am
mm
Weather Cloud Vis
km
Sea
Height
m
Swell
Dir
 
Speed
knots
Gust
knots
hPa Trend Height
m
Period
s
Dir
27/11:30pm 23.0 ESE 7 11 1019.0 - 0.0 - - - - - - -
27/11:00pm 23.0 SE 7 12 1019.0 - 0.0 - - - - - - -
27/10:30pm 23.0 SE 8 13 1019.2 - 0.0 - - - - - - -
27/10:00pm 23.0 SE 9 12 1019.3 - 0.0 - - - - - - -
27/09:30pm 22.9 SE 9 14 1019.2 - 0.0 - - - - - - -
27/09:00pm 22.9 SE 8 14 1019.2 - 0.0 - - - - - - -
27/08:30pm 22.9 ESE 8 13 1019.3 - 0.0 - - - - - - -
27/08:00pm 22.9 SE 8 12 1019.0 - 0.0 - - - - - - -
27/07:30pm 22.9 ESE 8 12 1018.8 - 0.0 - - - - - - -
27/07:00pm 23.0 SE 6 11 1018.5 - 0.0 - - - - - - -
27/06:30pm 23.2 ESE 6 10 1018.2 - 0.0 - - - - - - -
27/06:00pm 23.5 ESE 6 10 1017.7 - 0.0 - - - - - - -
27/05:30pm 24.2 SE 5 8 1017.4 - 0.0 - - - - - - -
27/05:00pm 24.2 SE 6 9 1017.2 - 0.0 - - - - - - -
27/04:30pm 24.7 ESE 6 9 1017.0 - 0.0 - - - - - - -
27/04:00pm 25.2 ESE 4 7 1017.0 - 0.0 - - - - - - -
27/03:30pm 25.4 SE 4 6 1017.1 - 0.0 - - - - - - -
27/03:00pm 25.2 SE 5 8 1017.1 - 0.0 - - - - - - -
27/02:30pm 25.1 ESE 7 11 1017.2 - 0.0 - - - - - - -
27/02:00pm 25.7 SE 5 7 1017.5 - 0.0 - - - - - - -
27/01:30pm 25.0 ESE 6 10 1018.0 - 0.0 - - - - - - -
27/01:00pm 24.3 E 8 11 1018.3 - 0.0 - - - - - - -
27/12:30pm 24.5 E 7 9 1018.6 - 0.0 - - - - - - -
27/12:00pm 24.5 E 7 9 1018.9 - 0.0 - - - - - - -
27/11:30am 24.7 E 7 10 1019.3 - 0.0 - - - - - - -
27/11:00am 25.5 ESE 7 8 1019.4 - 0.0 - - - - - - -
27/10:30am 24.4 SE 3 5 1019.7 - 0.0 - - - - - - -
27/10:00am 23.0 S 5 6 1019.9 - 0.0 - - - - - - -
27/09:30am 22.0 SSW 5 6 1020.0 - 0.0 - - - - - - -
27/09:00am 21.5 SSW 5 6 1020.0 - 0.0 - - - - - - -
27/08:30am 21.0 SW 6 7 1019.9 - 0.0 - - - - - - -
27/08:00am 20.8 SW 8 9 1019.5 - 0.0 - - - - - - -
27/07:30am 20.5 WSW 7 8 1019.2 - 0.0 - - - - - - -

Other Formats:

Comma delimited format used in spreadsheet applications
http://www.bom.gov.au/fwo/IDQ60701/IDQ60701.94295.axf

JavaScript Object Notation format (JSON) in row-major order
http://www.bom.gov.au/fwo/IDQ60701/IDQ60701.94295.json